Time;durP1;ratioP1;P1;durP2;ratioP2;P2;SDS_P1;SDS_P2;PMS_P1;PMS_P2;Temp;Humidity;BMP_temperature;BMP_pressure;BME280_temperature;BME280_humidity;BME280_pressure;Samples;Min_cycle;Max_cycle;Signal;HPM_P1;HPM_P2
2023/10/07 00:01:45;;;;;;;8.47;3.50;;;;;;;;;;4936720;28;20544;-69
2023/10/07 00:04:13;;;;;;;3.00;2.77;;;;;;;;;;4937707;28;20442;-68
2023/10/07 00:06:39;;;;;;;10.13;3.13;;;;;;;;;;4952942;28;20457;-73
2023/10/07 00:09:10;;;;;;;4.63;3.10;;;;;;;;;;4952912;28;20459;-73
2023/10/07 00:11:36;;;;;;;2.77;2.63;;;;;;;;;;4953027;28;20458;-71
2023/10/07 00:14:02;;;;;;;2.57;2.47;;;;;;;;;;4953197;28;20493;-71
2023/10/07 00:16:28;;;;;;;2.80;2.70;;;;;;;;;;4955013;28;20474;-70
2023/10/07 00:18:55;;;;;;;3.17;3.07;;;;;;;;;;4954661;28;20446;-70
2023/10/07 00:21:26;;;;;;;4.83;3.70;;;;;;;;;;4953994;28;20504;-70
2023/10/07 00:23:53;;;;;;;3.90;3.60;;;;;;;;;;4953077;28;20450;-69
2023/10/07 00:26:19;;;;;;;5.83;4.17;;;;;;;;;;4954934;28;20458;-70
2023/10/07 00:28:59;;;;;;;6.90;3.30;;;;;;;;;;4951005;28;20450;-70
2023/10/07 00:31:27;;;;;;;5.87;3.80;;;;;;;;;;4940054;28;20449;-70
2023/10/07 00:34:02;;;;;;;3.33;3.13;;;;;;;;;;4953485;28;20519;-69
2023/10/07 00:39:07;;;;;;;4.97;3.30;;;;;;;;;;4954257;28;20449;-71
2023/10/07 00:41:45;;;;;;;4.93;3.87;;;;;;;;;;4952425;28;20544;-69
2023/10/07 00:46:45;;;;;;;4.10;3.80;;;;;;;;;;4953008;28;20466;-72
2023/10/07 00:49:20;;;;;;;3.20;2.90;;;;;;;;;;4954279;28;20533;-68
2023/10/07 00:51:46;;;;;;;3.10;2.90;;;;;;;;;;4953188;28;20446;-70
2023/10/07 00:54:35;;;;;;;3.33;3.23;;;;;;;;;;4952880;28;20557;-70
2023/10/07 00:59:50;;;;;;;3.57;3.27;;;;;;;;;;4953636;28;21011;-69
2023/10/07 01:02:28;;;;;;;3.10;2.90;;;;;;;;;;4952133;28;20471;-72
2023/10/07 01:04:54;;;;;;;4.20;3.70;;;;;;;;;;4935566;28;20443;-72
2023/10/07 01:07:20;;;;;;;3.47;3.17;;;;;;;;;;4952703;28;20437;-68
2023/10/07 01:09:58;;;;;;;3.17;2.97;;;;;;;;;;4952668;28;20525;-68
2023/10/07 01:12:25;;;;;;;4.53;3.60;;;;;;;;;;4936709;29;20466;-71
2023/10/07 01:14:53;;;;;;;4.50;3.53;;;;;;;;;;4952971;28;20619;-71
2023/10/07 01:17:30;;;;;;;5.57;3.87;;;;;;;;;;4951940;28;20458;-70
2023/10/07 01:19:57;;;;;;;4.03;3.70;;;;;;;;;;4952437;28;20457;-69
2023/10/07 01:22:35;;;;;;;4.20;3.97;;;;;;;;;;4953434;28;20446;-69
2023/10/07 01:25:06;;;;;;;4.93;3.80;;;;;;;;;;4952714;28;20517;-68
2023/10/07 01:27:41;;;;;;;3.60;3.30;;;;;;;;;;4952857;28;20434;-69
2023/10/07 01:30:15;;;;;;;3.30;3.10;;;;;;;;;;4951687;28;20446;-69
2023/10/07 01:33:01;;;;;;;12.33;3.03;;;;;;;;;;4952812;28;20438;-70
2023/10/07 01:35:32;;;;;;;2.60;2.50;;;;;;;;;;4934715;29;20465;-69
2023/10/07 01:38:18;;;;;;;2.73;2.73;;;;;;;;;;4952359;28;20446;-71
2023/10/07 01:43:16;;;;;;;17.70;3.30;;;;;;;;;;4953009;28;20441;-70
2023/10/07 01:45:42;;;;;;;4.33;3.50;;;;;;;;;;4951944;28;21005;-69
2023/10/07 01:48:08;;;;;;;3.23;3.07;;;;;;;;;;4951582;28;20461;-69
2023/10/07 01:50:41;;;;;;;4.17;3.90;;;;;;;;;;4934964;28;20943;-69
2023/10/07 01:53:07;;;;;;;6.30;3.90;;;;;;;;;;4951890;28;20469;-70
2023/10/07 01:55:36;;;;;;;3.73;3.37;;;;;;;;;;4952002;28;20962;-70
2023/10/07 01:58:03;;;;;;;3.73;3.50;;;;;;;;;;4950133;28;20932;-68
2023/10/07 02:00:43;;;;;;;3.40;3.30;;;;;;;;;;4950686;28;20819;-70
2023/10/07 02:03:13;;;;;;;7.67;3.00;;;;;;;;;;4953144;28;20812;-70
2023/10/07 02:05:40;;;;;;;7.07;3.43;;;;;;;;;;4951286;28;20447;-70
2023/10/07 02:08:20;;;;;;;3.60;3.27;;;;;;;;;;4934080;28;20537;-72
2023/10/07 02:10:47;;;;;;;11.83;3.00;;;;;;;;;;4951809;28;20446;-70
2023/10/07 02:13:14;;;;;;;3.13;3.03;;;;;;;;;;4952807;28;20438;-70
2023/10/07 02:15:44;;;;;;;2.60;2.50;;;;;;;;;;4953356;28;20470;-72
2023/10/07 02:18:17;;;;;;;2.70;2.60;;;;;;;;;;4953235;28;20434;-71
2023/10/07 02:20:43;;;;;;;5.90;3.07;;;;;;;;;;4951263;28;20449;-69
2023/10/07 02:23:15;;;;;;;6.00;2.13;;;;;;;;;;4951540;28;20456;-72
2023/10/07 02:25:41;;;;;;;2.53;2.43;;;;;;;;;;4951163;28;20474;-70
2023/10/07 02:28:08;;;;;;;2.67;2.57;;;;;;;;;;4950895;28;21998;-69
2023/10/07 02:30:51;;;;;;;3.20;2.90;;;;;;;;;;4951749;28;20959;-69
2023/10/07 02:33:21;;;;;;;4.57;3.07;;;;;;;;;;4951804;28;20538;-70
2023/10/07 02:35:54;;;;;;;7.27;3.77;;;;;;;;;;4951405;28;20438;-71
2023/10/07 02:38:25;;;;;;;3.33;3.03;;;;;;;;;;4951057;28;20431;-71
2023/10/07 02:40:52;;;;;;;3.43;3.10;;;;;;;;;;4949958;28;20458;-72
2023/10/07 02:43:18;;;;;;;2.07;2.07;;;;;;;;;;4952744;28;20434;-72
2023/10/07 02:45:45;;;;;;;2.63;2.53;;;;;;;;;;4951707;28;20887;-73
2023/10/07 02:48:11;;;;;;;2.40;2.30;;;;;;;;;;4952350;28;20434;-69
2023/10/07 02:50:44;;;;;;;2.80;2.60;;;;;;;;;;4949023;29;20443;-69
2023/10/07 02:53:16;;;;;;;2.27;2.17;;;;;;;;;;4953008;28;20447;-70
2023/10/07 02:56:03;;;;;;;3.23;2.93;;;;;;;;;;4956397;28;20518;-72
2023/10/07 02:58:36;;;;;;;3.37;2.83;;;;;;;;;;4955355;28;20542;-71
2023/10/07 03:01:13;;;;;;;2.87;2.67;;;;;;;;;;4954580;28;20518;-70
2023/10/07 03:03:40;;;;;;;3.83;3.40;;;;;;;;;;4956083;28;21207;-69
2023/10/07 03:06:07;;;;;;;4.57;3.30;;;;;;;;;;4955822;28;20469;-69
2023/10/07 03:08:40;;;;;;;3.67;3.37;;;;;;;;;;4954685;28;20445;-70
2023/10/07 03:11:10;;;;;;;13.90;3.30;;;;;;;;;;4937632;29;20979;-69
2023/10/07 03:13:37;;;;;;;4.03;3.50;;;;;;;;;;4954729;28;20497;-74
2023/10/07 03:16:27;;;;;;;3.43;3.13;;;;;;;;;;4953425;28;20481;-72
2023/10/07 03:24:13;;;;;;;3.20;2.97;;;;;;;;;;4955268;28;20470;-72
2023/10/07 03:26:41;;;;;;;3.83;3.60;;;;;;;;;;4937927;29;20569;-71
2023/10/07 03:29:07;;;;;;;7.70;4.67;;;;;;;;;;4956161;28;20971;-72
2023/10/07 03:34:12;;;;;;;8.83;4.97;;;;;;;;;;4953915;28;20505;-70
2023/10/07 03:36:45;;;;;;;6.80;4.93;;;;;;;;;;4938032;28;20434;-69
2023/10/07 03:41:47;;;;;;;5.07;4.67;;;;;;;;;;4953440;28;20453;-69
2023/10/07 03:44:13;;;;;;;7.20;4.70;;;;;;;;;;4952820;28;20501;-68
2023/10/07 03:46:40;;;;;;;5.73;5.17;;;;;;;;;;4954184;28;20442;-69
2023/10/07 03:49:07;;;;;;;8.03;5.20;;;;;;;;;;4937089;28;21073;-68
2023/10/07 03:51:35;;;;;;;5.43;4.40;;;;;;;;;;4953069;28;20493;-70
2023/10/07 03:54:03;;;;;;;4.30;4.00;;;;;;;;;;4954784;28;20568;-69
2023/10/07 03:56:29;;;;;;;5.57;5.17;;;;;;;;;;4953112;28;20447;-70
2023/10/07 03:58:55;;;;;;;4.77;4.43;;;;;;;;;;4952971;28;20954;-69
2023/10/07 04:01:26;;;;;;;3.70;3.40;;;;;;;;;;4953550;28;20447;-69
2023/10/07 04:03:52;;;;;;;3.80;3.53;;;;;;;;;;4936157;29;20506;-72
2023/10/07 04:06:19;;;;;;;4.50;3.87;;;;;;;;;;4954463;28;20525;-72
2023/10/07 04:08:56;;;;;;;6.80;4.30;;;;;;;;;;4953024;28;20501;-71
2023/10/07 04:11:26;;;;;;;4.50;3.30;;;;;;;;;;4953635;28;20496;-71
2023/10/07 04:13:56;;;;;;;3.37;3.13;;;;;;;;;;4953747;28;20497;-72
2023/10/07 04:16:29;;;;;;;3.23;2.93;;;;;;;;;;4954403;28;20944;-70
2023/10/07 04:19:06;;;;;;;5.13;2.60;;;;;;;;;;4951948;28;20509;-69
2023/10/07 04:21:32;;;;;;;6.83;3.40;;;;;;;;;;4937443;28;20805;-70
2023/10/07 04:24:01;;;;;;;3.10;3.00;;;;;;;;;;4953609;28;20450;-73
2023/10/07 04:26:27;;;;;;;3.23;3.03;;;;;;;;;;4953178;28;20434;-73
2023/10/07 04:28:53;;;;;;;3.40;3.20;;;;;;;;;;4953613;28;20530;-70
2023/10/07 04:31:29;;;;;;;3.77;3.47;;;;;;;;;;4953357;28;20442;-71
2023/10/07 04:33:55;;;;;;;3.80;3.47;;;;;;;;;;4951589;28;20533;-71
2023/10/07 04:36:33;;;;;;;4.97;3.40;;;;;;;;;;4950556;28;20439;-69
2023/10/07 04:39:08;;;;;;;3.20;3.10;;;;;;;;;;4950807;28;20553;-70
2023/10/07 04:41:36;;;;;;;3.90;3.50;;;;;;;;;;4935003;28;20442;-70
2023/10/07 04:46:56;;;;;;;4.23;3.77;;;;;;;;;;4954586;28;20875;-69
2023/10/07 04:49:26;;;;;;;3.60;3.30;;;;;;;;;;4951372;28;20454;-69
2023/10/07 04:51:55;;;;;;;6.10;3.33;;;;;;;;;;4952206;28;20462;-70
2023/10/07 04:54:21;;;;;;;5.03;3.67;;;;;;;;;;4951461;28;20488;-71
2023/10/07 04:56:53;;;;;;;3.80;3.60;;;;;;;;;;4953781;28;20451;-69
2023/10/07 04:59:19;;;;;;;4.20;3.27;;;;;;;;;;4952621;28;20459;-70
2023/10/07 05:01:48;;;;;;;4.47;4.07;;;;;;;;;;4952601;28;20521;-70
2023/10/07 05:04:15;;;;;;;3.60;3.40;;;;;;;;;;4952649;28;20450;-69
2023/10/07 05:06:43;;;;;;;4.20;3.70;;;;;;;;;;4953229;28;20517;-70
2023/10/07 05:09:09;;;;;;;2.97;2.70;;;;;;;;;;4952106;28;20435;-70
2023/10/07 05:11:37;;;;;;;3.67;3.37;;;;;;;;;;4953828;28;20978;-69
2023/10/07 05:14:03;;;;;;;4.30;3.90;;;;;;;;;;4950511;28;20475;-68
2023/10/07 05:16:29;;;;;;;4.30;3.70;;;;;;;;;;4950285;28;21037;-70
2023/10/07 05:18:55;;;;;;;4.40;4.00;;;;;;;;;;4952391;28;20526;-69
2023/10/07 05:21:22;;;;;;;4.13;3.83;;;;;;;;;;4952485;28;20847;-69
2023/10/07 05:23:49;;;;;;;20.10;3.73;;;;;;;;;;4952087;28;20431;-73
2023/10/07 05:26:17;;;;;;;4.27;3.87;;;;;;;;;;4952803;29;20445;-72
2023/10/07 05:28:44;;;;;;;4.40;3.00;;;;;;;;;;4936019;28;20492;-73
2023/10/07 05:31:14;;;;;;;5.50;2.97;;;;;;;;;;4950980;28;20545;-69
2023/10/07 05:33:40;;;;;;;4.80;3.70;;;;;;;;;;4934110;29;20479;-71
2023/10/07 05:36:30;;;;;;;3.60;3.40;;;;;;;;;;4949054;29;20505;-68
2023/10/07 05:38:55;;;;;;;4.33;3.90;;;;;;;;;;4951676;28;20826;-73
2023/10/07 05:41:25;;;;;;;3.53;3.37;;;;;;;;;;4950592;28;20443;-71
2023/10/07 05:43:51;;;;;;;4.70;4.23;;;;;;;;;;4949838;29;20447;-72
2023/10/07 05:46:20;;;;;;;8.93;2.67;;;;;;;;;;4952536;28;20932;-71
2023/10/07 05:48:51;;;;;;;4.83;3.43;;;;;;;;;;4950305;29;20442;-69
2023/10/07 05:51:17;;;;;;;3.40;3.13;;;;;;;;;;4950291;29;20514;-70
2023/10/07 05:53:48;;;;;;;3.87;3.37;;;;;;;;;;4950087;29;20536;-73
2023/10/07 05:56:15;;;;;;;5.60;2.90;;;;;;;;;;4951495;28;20966;-70
2023/10/07 05:58:43;;;;;;;4.50;3.53;;;;;;;;;;4951289;28;20451;-69
2023/10/07 06:01:11;;;;;;;3.50;3.30;;;;;;;;;;4950480;29;20447;-70
2023/10/07 06:03:38;;;;;;;4.07;3.27;;;;;;;;;;4950074;29;20958;-73
2023/10/07 06:06:06;;;;;;;3.17;2.97;;;;;;;;;;4950806;29;20438;-73
2023/10/07 06:08:32;;;;;;;7.23;2.97;;;;;;;;;;4951878;28;20442;-69
2023/10/07 06:10:59;;;;;;;3.60;3.23;;;;;;;;;;4950464;29;20469;-70
2023/10/07 06:13:28;;;;;;;3.10;2.90;;;;;;;;;;4934765;28;20451;-68
2023/10/07 06:15:58;;;;;;;3.53;3.27;;;;;;;;;;4951047;28;20483;-70
2023/10/07 06:18:24;;;;;;;4.33;3.90;;;;;;;;;;4949541;28;20439;-71
2023/10/07 06:20:51;;;;;;;4.27;3.77;;;;;;;;;;4934581;29;20981;-70
2023/10/07 06:23:24;;;;;;;3.90;3.60;;;;;;;;;;4950804;29;20469;-67
2023/10/07 06:25:50;;;;;;;8.87;4.50;;;;;;;;;;4932569;29;21074;-70
2023/10/07 06:28:29;;;;;;;18.13;4.33;;;;;;;;;;4950730;28;20439;-73
2023/10/07 06:31:13;;;;;;;6.17;5.10;;;;;;;;;;4933622;29;20958;-69
2023/10/07 06:34:11;;;;;;;11.40;5.43;;;;;;;;;;4950595;28;20487;-73
2023/10/07 06:36:39;;;;;;;7.37;6.00;;;;;;;;;;4951135;29;20446;-70
2023/10/07 06:39:07;;;;;;;10.27;4.90;;;;;;;;;;4951905;28;20454;-72
2023/10/07 06:41:34;;;;;;;6.60;5.00;;;;;;;;;;4950485;28;20797;-68
2023/10/07 06:43:59;;;;;;;5.40;4.53;;;;;;;;;;4948066;29;20454;-68
2023/10/07 06:46:31;;;;;;;12.57;5.00;;;;;;;;;;4948847;28;20501;-69
2023/10/07 06:48:59;;;;;;;11.63;4.77;;;;;;;;;;4952004;28;20430;-69
2023/10/07 06:51:28;;;;;;;10.83;5.20;;;;;;;;;;4948940;29;20451;-71
2023/10/07 06:53:54;;;;;;;8.67;4.60;;;;;;;;;;4950448;29;20565;-68
2023/10/07 06:56:21;;;;;;;5.83;4.63;;;;;;;;;;4950542;29;20463;-70
2023/10/07 06:58:53;;;;;;;18.67;4.67;;;;;;;;;;4951142;29;20419;-73
2023/10/07 07:04:10;;;;;;;4.63;3.17;;;;;;;;;;4951083;28;20937;-70
2023/10/07 07:06:43;;;;;;;6.20;3.97;;;;;;;;;;4951058;28;20434;-71
2023/10/07 07:12:03;;;;;;;9.23;6.57;;;;;;;;;;4950277;29;20494;-66
2023/10/07 07:14:33;;;;;;;4.00;3.67;;;;;;;;;;4950812;28;20490;-73
2023/10/07 07:17:29;;;;;;;12.90;5.60;;;;;;;;;;4950498;29;20433;-73
2023/10/07 07:19:45;;;;;;;5.27;4.73;;;;;;;;;;4951025;29;20422;-73
2023/10/07 07:22:11;;;;;;;6.87;5.27;;;;;;;;;;4950891;29;20423;-72
2023/10/07 07:24:41;;;;;;;10.17;4.83;;;;;;;;;;4950125;28;20459;-73
2023/10/07 07:27:08;;;;;;;11.47;5.33;;;;;;;;;;4951809;28;20494;-72
2023/10/07 07:29:34;;;;;;;11.17;6.00;;;;;;;;;;4950554;28;20443;-71
2023/10/07 07:32:04;;;;;;;12.80;6.13;;;;;;;;;;4949236;28;20481;-67
2023/10/07 07:34:36;;;;;;;7.63;5.40;;;;;;;;;;4951913;28;20486;-70
2023/10/07 07:37:06;;;;;;;9.43;5.33;;;;;;;;;;4949783;28;20518;-72
2023/10/07 07:39:32;;;;;;;10.63;5.47;;;;;;;;;;4953072;28;20454;-69
2023/10/07 07:42:15;;;;;;;9.17;4.80;;;;;;;;;;4954054;28;20934;-70
2023/10/07 07:44:58;;;;;;;26.60;4.83;;;;;;;;;;4936381;29;20951;-68
2023/10/07 07:47:30;;;;;;;10.63;5.13;;;;;;;;;;4953154;29;20450;-69
2023/10/07 07:49:57;;;;;;;6.70;4.10;;;;;;;;;;4954008;28;20431;-69
2023/10/07 07:52:25;;;;;;;5.90;4.13;;;;;;;;;;4936232;29;20509;-73
2023/10/07 07:54:53;;;;;;;9.17;4.40;;;;;;;;;;4956233;28;20486;-70
2023/10/07 07:57:22;;;;;;;8.17;4.73;;;;;;;;;;4954569;28;20438;-70
2023/10/07 07:59:48;;;;;;;5.47;5.03;;;;;;;;;;4953839;29;20473;-68
2023/10/07 08:02:17;;;;;;;5.97;5.03;;;;;;;;;;4952806;29;20800;-68
2023/10/07 08:04:50;;;;;;;4.70;4.30;;;;;;;;;;4934031;29;20443;-68
2023/10/07 08:09:51;;;;;;;8.70;4.73;;;;;;;;;;4953372;29;20485;-68
2023/10/07 08:12:28;;;;;;;7.07;5.30;;;;;;;;;;4955008;28;20443;-69
2023/10/07 08:14:58;;;;;;;6.30;4.57;;;;;;;;;;4952854;28;20505;-68
2023/10/07 08:17:27;;;;;;;7.73;4.50;;;;;;;;;;4952551;28;20819;-68
2023/10/07 08:19:53;;;;;;;5.77;5.27;;;;;;;;;;4952839;28;20443;-68
2023/10/07 08:22:20;;;;;;;7.20;5.07;;;;;;;;;;4953532;29;20490;-70
2023/10/07 08:24:46;;;;;;;4.13;3.83;;;;;;;;;;4933194;29;20501;-69
2023/10/07 08:30:06;;;;;;;28.47;5.10;;;;;;;;;;4951930;29;20422;-69
2023/10/07 08:32:37;;;;;;;4.00;3.70;;;;;;;;;;4953539;29;20414;-70
2023/10/07 08:35:03;;;;;;;5.73;4.93;;;;;;;;;;4953024;29;20474;-68
2023/10/07 08:37:33;;;;;;;10.70;4.93;;;;;;;;;;4953197;28;20830;-68
2023/10/07 08:40:11;;;;;;;7.67;4.93;;;;;;;;;;4952755;28;20939;-69
2023/10/07 08:42:37;;;;;;;7.50;4.90;;;;;;;;;;4952749;28;20431;-68
2023/10/07 08:45:14;;;;;;;20.53;3.80;;;;;;;;;;4951190;28;20439;-68
2023/10/07 08:47:48;;;;;;;4.23;3.40;;;;;;;;;;4951686;28;20450;-67
2023/10/07 08:50:18;;;;;;;6.67;4.20;;;;;;;;;;4949334;28;20443;-68
2023/10/07 08:52:44;;;;;;;4.40;4.00;;;;;;;;;;4952325;28;20477;-67
2023/10/07 08:55:10;;;;;;;8.67;4.90;;;;;;;;;;4952554;29;20532;-70
2023/10/07 08:57:41;;;;;;;6.70;3.60;;;;;;;;;;4952754;28;20443;-70
2023/10/07 09:00:12;;;;;;;3.50;3.30;;;;;;;;;;4953586;28;20439;-68
2023/10/07 09:02:40;;;;;;;4.40;4.00;;;;;;;;;;4951879;28;20537;-68
2023/10/07 09:05:09;;;;;;;4.60;4.20;;;;;;;;;;4935114;29;20963;-69
2023/10/07 09:07:36;;;;;;;4.67;4.10;;;;;;;;;;4919015;28;20991;-68
2023/10/07 09:10:17;;;;;;;4.40;3.97;;;;;;;;;;4953035;28;20435;-68
2023/10/07 09:12:48;;;;;;;5.47;4.47;;;;;;;;;;4952568;29;20430;-69
2023/10/07 09:15:19;;;;;;;7.23;4.37;;;;;;;;;;4952310;28;20491;-68
2023/10/07 09:17:45;;;;;;;5.17;3.70;;;;;;;;;;4952365;29;21357;-67
2023/10/07 09:20:29;;;;;;;4.50;4.17;;;;;;;;;;4936280;29;21083;-68
2023/10/07 09:22:57;;;;;;;6.97;4.03;;;;;;;;;;4952158;28;20601;-68
2023/10/07 09:25:31;;;;;;;7.30;3.60;;;;;;;;;;4951557;28;20493;-68
2023/10/07 09:27:58;;;;;;;3.23;3.03;;;;;;;;;;4950236;28;20454;-68
2023/10/07 09:30:44;;;;;;;4.47;3.43;;;;;;;;;;4934839;29;20481;-68
2023/10/07 09:33:17;;;;;;;3.97;3.43;;;;;;;;;;4951983;29;20506;-68
2023/10/07 09:35:49;;;;;;;7.70;3.30;;;;;;;;;;4952563;28;20517;-68
2023/10/07 09:38:34;;;;;;;3.87;3.03;;;;;;;;;;4951870;28;20522;-68
2023/10/07 09:41:23;;;;;;;3.53;3.20;;;;;;;;;;4951224;28;21984;-68
2023/10/07 09:43:56;;;;;;;5.00;3.13;;;;;;;;;;4951167;28;20435;-68
2023/10/07 09:46:26;;;;;;;14.00;3.97;;;;;;;;;;4952483;29;20419;-68
2023/10/07 09:48:52;;;;;;;6.17;3.80;;;;;;;;;;4953470;28;20931;-68
2023/10/07 09:51:47;;;;;;;6.10;3.50;;;;;;;;;;4952134;28;20422;-67
2023/10/07 09:54:16;;;;;;;5.77;3.80;;;;;;;;;;4951340;28;20486;-68
2023/10/07 09:56:58;;;;;;;7.47;3.80;;;;;;;;;;4951982;28;20450;-68
2023/10/07 09:59:43;;;;;;;5.60;4.37;;;;;;;;;;4951800;28;20484;-68
2023/10/07 10:02:25;;;;;;;6.90;4.27;;;;;;;;;;4934643;28;20506;-68
2023/10/07 10:05:00;;;;;;;4.03;3.73;;;;;;;;;;4948284;28;20477;-69
2023/10/07 10:07:44;;;;;;;4.07;3.67;;;;;;;;;;4950392;28;20457;-69
2023/10/07 10:10:14;;;;;;;4.13;3.30;;;;;;;;;;4948442;28;20450;-70
2023/10/07 10:12:56;;;;;;;4.67;3.63;;;;;;;;;;4950659;28;20459;-68
2023/10/07 10:18:06;;;;;;;5.20;3.73;;;;;;;;;;4951817;28;20521;-68
2023/10/07 10:20:44;;;;;;;7.10;3.77;;;;;;;;;;4951252;29;20419;-68
2023/10/07 10:23:19;;;;;;;4.37;3.23;;;;;;;;;;4950335;28;20427;-70
2023/10/07 10:25:48;;;;;;;3.27;3.07;;;;;;;;;;4950274;28;20435;-69
2023/10/07 10:28:20;;;;;;;7.73;4.23;;;;;;;;;;4951668;28;20446;-69
2023/10/07 10:30:47;;;;;;;5.80;3.60;;;;;;;;;;4951004;28;20513;-69
2023/10/07 10:33:19;;;;;;;6.63;3.93;;;;;;;;;;4949065;28;20438;-68
2023/10/07 10:35:49;;;;;;;5.87;3.67;;;;;;;;;;4951542;28;20490;-69
2023/10/07 10:38:15;;;;;;;5.83;3.40;;;;;;;;;;4953063;28;20446;-68
2023/10/07 10:40:45;;;;;;;5.10;3.67;;;;;;;;;;4948977;28;21010;-68
2023/10/07 10:43:22;;;;;;;10.00;4.30;;;;;;;;;;4950303;28;20470;-68
2023/10/07 10:45:48;;;;;;;4.23;2.90;;;;;;;;;;4949199;28;20442;-69
2023/10/07 10:48:14;;;;;;;3.50;3.20;;;;;;;;;;4951486;29;20423;-68
2023/10/07 10:50:41;;;;;;;4.27;3.60;;;;;;;;;;4946685;28;21349;-68
2023/10/07 10:53:07;;;;;;;4.80;4.40;;;;;;;;;;4947710;28;20466;-67
2023/10/07 10:55:34;;;;;;;12.17;2.53;;;;;;;;;;4947526;28;20911;-68
2023/10/07 10:58:00;;;;;;;7.50;3.30;;;;;;;;;;4949575;28;20446;-69
2023/10/07 11:00:28;;;;;;;7.77;3.43;;;;;;;;;;4949932;28;20459;-68
2023/10/07 11:02:54;;;;;;;4.57;3.83;;;;;;;;;;4947599;28;22092;-68
2023/10/07 11:05:25;;;;;;;3.70;3.37;;;;;;;;;;4947317;28;20934;-68
2023/10/07 11:07:52;;;;;;;4.47;3.10;;;;;;;;;;4948478;28;20442;-68
2023/10/07 11:10:25;;;;;;;5.63;3.10;;;;;;;;;;4948052;28;20529;-68
2023/10/07 11:12:56;;;;;;;9.57;3.67;;;;;;;;;;4948470;28;20455;-68
2023/10/07 11:15:27;;;;;;;7.47;3.90;;;;;;;;;;4947830;28;20501;-68
2023/10/07 11:17:54;;;;;;;3.67;3.47;;;;;;;;;;4971147;28;21185;-68
2023/10/07 11:20:24;;;;;;;3.80;2.97;;;;;;;;;;4969781;28;20438;-68
2023/10/07 11:22:50;;;;;;;12.77;3.80;;;;;;;;;;4971685;28;20441;-68
2023/10/07 11:25:16;;;;;;;7.43;3.03;;;;;;;;;;4960962;28;20505;-68
2023/10/07 11:27:48;;;;;;;5.63;3.40;;;;;;;;;;4971569;28;20448;-68
2023/10/07 11:30:14;;;;;;;8.90;3.60;;;;;;;;;;4972856;28;20441;-68
2023/10/07 11:32:42;;;;;;;11.93;2.97;;;;;;;;;;4971257;28;20483;-68
2023/10/07 11:35:19;;;;;;;3.00;2.87;;;;;;;;;;4973492;28;20930;-68
2023/10/07 11:37:58;;;;;;;4.60;3.20;;;;;;;;;;4972428;28;20528;-69
2023/10/07 11:40:27;;;;;;;7.40;3.37;;;;;;;;;;4970804;28;20500;-68
2023/10/07 11:42:53;;;;;;;5.00;2.80;;;;;;;;;;4972100;28;20445;-68
2023/10/07 11:45:22;;;;;;;21.43;3.93;;;;;;;;;;4973369;28;20421;-69
2023/10/07 11:47:49;;;;;;;3.23;2.33;;;;;;;;;;4974755;28;20442;-68
2023/10/07 11:50:16;;;;;;;5.33;2.53;;;;;;;;;;4973682;28;20425;-68
2023/10/07 11:52:42;;;;;;;7.13;3.03;;;;;;;;;;4973772;28;20430;-68
2023/10/07 11:55:09;;;;;;;3.40;3.17;;;;;;;;;;4972610;28;20493;-68
2023/10/07 11:57:37;;;;;;;2.70;2.57;;;;;;;;;;4973829;28;20557;-68
2023/10/07 12:00:09;;;;;;;1.40;1.40;;;;;;;;;;4973728;28;20422;-68
2023/10/07 12:02:35;;;;;;;2.53;2.33;;;;;;;;;;4972653;28;20504;-68
2023/10/07 12:05:01;;;;;;;15.27;3.03;;;;;;;;;;4972998;28;20446;-68
2023/10/07 12:07:29;;;;;;;4.53;2.57;;;;;;;;;;4973165;28;20950;-68
2023/10/07 12:09:55;;;;;;;4.23;2.67;;;;;;;;;;4973511;28;20914;-69
2023/10/07 12:12:22;;;;;;;2.90;2.40;;;;;;;;;;4973161;28;20437;-68
2023/10/07 12:14:48;;;;;;;2.77;2.40;;;;;;;;;;4968419;28;20501;-68
2023/10/07 12:17:16;;;;;;;3.13;2.73;;;;;;;;;;4936860;29;20415;-68
2023/10/07 12:19:43;;;;;;;3.27;2.60;;;;;;;;;;4936640;29;20431;-68
2023/10/07 12:22:10;;;;;;;4.00;1.77;;;;;;;;;;4953423;29;20427;-68
2023/10/07 12:24:37;;;;;;;4.00;2.23;;;;;;;;;;4952278;28;20458;-68
2023/10/07 12:27:06;;;;;;;6.37;3.30;;;;;;;;;;4954025;28;20431;-68
2023/10/07 12:29:33;;;;;;;2.40;2.23;;;;;;;;;;4953305;29;20939;-68
2023/10/07 12:31:59;;;;;;;3.63;2.70;;;;;;;;;;4953491;28;20411;-68
2023/10/07 12:34:26;;;;;;;4.83;2.20;;;;;;;;;;4953083;29;20573;-68
2023/10/07 12:36:53;;;;;;;1.60;1.60;;;;;;;;;;4954013;28;20439;-68
2023/10/07 12:39:21;;;;;;;3.47;2.90;;;;;;;;;;4953745;29;20450;-68
2023/10/07 12:41:47;;;;;;;5.07;2.37;;;;;;;;;;4953864;29;20426;-68
2023/10/07 12:44:13;;;;;;;4.10;2.50;;;;;;;;;;4952319;29;20422;-68
2023/10/07 12:46:40;;;;;;;3.37;2.47;;;;;;;;;;4953556;29;20422;-68
2023/10/07 12:49:10;;;;;;;11.30;2.70;;;;;;;;;;4953141;29;20442;-70
2023/10/07 12:51:41;;;;;;;2.00;1.90;;;;;;;;;;4935346;29;20442;-69
2023/10/07 12:54:09;;;;;;;5.17;2.53;;;;;;;;;;4951738;28;20490;-68
2023/10/07 12:56:36;;;;;;;2.23;2.07;;;;;;;;;;4952600;28;20800;-70
2023/10/07 12:59:07;;;;;;;10.00;2.63;;;;;;;;;;4953585;29;20439;-71
2023/10/07 13:01:33;;;;;;;6.33;2.87;;;;;;;;;;4953730;28;20434;-68
2023/10/07 13:03:59;;;;;;;3.13;2.90;;;;;;;;;;4952537;29;20906;-69
2023/10/07 13:06:25;;;;;;;3.23;1.80;;;;;;;;;;4952892;29;20518;-69
2023/10/07 13:08:53;;;;;;;4.60;2.83;;;;;;;;;;4933874;29;20974;-69
2023/10/07 13:11:21;;;;;;;5.67;2.07;;;;;;;;;;4953105;28;20426;-68
2023/10/07 13:13:47;;;;;;;2.30;1.70;;;;;;;;;;4951788;28;20437;-69
2023/10/07 13:16:14;;;;;;;3.17;2.17;;;;;;;;;;4952685;28;20474;-68
2023/10/07 13:18:41;;;;;;;1.93;1.83;;;;;;;;;;4952247;29;20522;-68
2023/10/07 13:21:13;;;;;;;1.40;1.33;;;;;;;;;;4952623;29;20423;-68
2023/10/07 13:23:39;;;;;;;1.67;1.50;;;;;;;;;;4952271;29;20930;-68
2023/10/07 13:26:08;;;;;;;4.10;3.80;;;;;;;;;;4952935;29;20450;-68
2023/10/07 13:28:38;;;;;;;2.43;2.30;;;;;;;;;;4952901;28;20494;-67
2023/10/07 13:31:14;;;;;;;1.93;1.83;;;;;;;;;;4952903;29;20419;-68
2023/10/07 13:33:40;;;;;;;2.37;2.27;;;;;;;;;;4952011;29;20624;-68
2023/10/07 13:36:07;;;;;;;2.00;1.90;;;;;;;;;;4952097;28;20446;-69
2023/10/07 13:38:33;;;;;;;2.80;1.93;;;;;;;;;;4952617;29;20795;-68
2023/10/07 13:41:05;;;;;;;2.63;1.70;;;;;;;;;;4952501;29;20927;-69
2023/10/07 13:43:35;;;;;;;6.20;2.80;;;;;;;;;;4952485;28;20462;-68
2023/10/07 13:46:10;;;;;;;3.43;2.00;;;;;;;;;;4951948;29;20943;-68
2023/10/07 13:48:36;;;;;;;2.03;1.93;;;;;;;;;;4952328;29;20785;-68
2023/10/07 13:51:05;;;;;;;1.80;1.80;;;;;;;;;;4951561;29;20481;-68
2023/10/07 13:59:11;;;;;;;2.70;2.27;;;;;;;;;;4952543;28;20780;-68
2023/10/07 14:01:37;;;;;;;1.80;1.70;;;;;;;;;;4951598;29;20439;-68
2023/10/07 14:04:03;;;;;;;2.60;2.40;;;;;;;;;;4951852;29;20422;-68
2023/10/07 14:06:29;;;;;;;2.13;1.97;;;;;;;;;;4934595;29;20415;-68
2023/10/07 14:08:55;;;;;;;3.40;3.10;;;;;;;;;;4951982;29;20518;-68
2023/10/07 14:11:22;;;;;;;2.53;2.33;;;;;;;;;;4952014;29;20526;-68
2023/10/07 14:13:48;;;;;;;4.40;1.60;;;;;;;;;;4951652;28;20423;-68
2023/10/07 14:16:17;;;;;;;7.43;3.20;;;;;;;;;;4951251;28;20541;-68
2023/10/07 14:18:44;;;;;;;1.70;1.70;;;;;;;;;;4951843;29;20431;-68
2023/10/07 14:21:10;;;;;;;1.63;1.53;;;;;;;;;;4951403;29;20442;-69
2023/10/07 14:23:37;;;;;;;1.53;1.47;;;;;;;;;;4951235;28;21175;-68
2023/10/07 14:26:03;;;;;;;3.50;1.90;;;;;;;;;;4952099;29;20427;-68
2023/10/07 14:28:30;;;;;;;7.13;2.20;;;;;;;;;;4950790;28;20443;-68
2023/10/07 14:30:56;;;;;;;2.60;2.37;;;;;;;;;;4934388;29;20862;-68
2023/10/07 14:33:23;;;;;;;3.87;2.10;;;;;;;;;;4951460;29;20514;-68
2023/10/07 14:35:50;;;;;;;2.37;2.27;;;;;;;;;;4951036;29;20489;-68
2023/10/07 14:38:16;;;;;;;1.80;1.70;;;;;;;;;;4951837;29;20422;-68
2023/10/07 14:40:43;;;;;;;3.73;2.27;;;;;;;;;;4951717;29;20435;-68
2023/10/07 14:43:12;;;;;;;2.70;2.60;;;;;;;;;;4951439;28;20848;-68
2023/10/07 14:45:39;;;;;;;1.47;1.37;;;;;;;;;;4951180;29;20974;-68
2023/10/07 14:48:05;;;;;;;2.40;2.30;;;;;;;;;;4952737;28;20486;-68
2023/10/07 14:50:40;;;;;;;1.70;1.50;;;;;;;;;;4955334;28;20466;-68
2023/10/07 14:53:06;;;;;;;1.37;1.33;;;;;;;;;;4954678;29;20414;-68
2023/10/07 14:55:33;;;;;;;2.27;2.13;;;;;;;;;;4955107;29;21002;-68
2023/10/07 14:58:03;;;;;;;9.27;3.23;;;;;;;;;;4955583;29;20477;-68
2023/10/07 15:00:30;;;;;;;1.90;1.70;;;;;;;;;;4955617;28;20434;-68
2023/10/07 15:03:01;;;;;;;5.30;2.57;;;;;;;;;;4955372;29;20431;-68
2023/10/07 15:05:27;;;;;;;1.90;1.70;;;;;;;;;;4954408;29;20918;-67
2023/10/07 15:07:53;;;;;;;23.90;2.83;;;;;;;;;;4955893;28;20501;-67
2023/10/07 15:10:21;;;;;;;6.00;2.03;;;;;;;;;;4955131;28;20439;-67
2023/10/07 15:12:47;;;;;;;5.50;2.33;;;;;;;;;;4955431;29;20462;-68
2023/10/07 15:15:14;;;;;;;2.10;2.00;;;;;;;;;;4954004;28;20541;-67
2023/10/07 15:17:44;;;;;;;2.43;2.30;;;;;;;;;;4954970;28;20446;-70
2023/10/07 15:20:10;;;;;;;2.17;1.97;;;;;;;;;;4937568;29;20458;-70
2023/10/07 15:22:37;;;;;;;4.83;2.67;;;;;;;;;;4951881;29;20426;-67
2023/10/07 15:25:03;;;;;;;1.57;1.50;;;;;;;;;;4954316;28;20449;-67
2023/10/07 15:27:29;;;;;;;1.20;1.10;;;;;;;;;;4954009;29;20438;-67
2023/10/07 15:30:00;;;;;;;5.30;2.80;;;;;;;;;;4956027;28;20927;-67
2023/10/07 15:32:28;;;;;;;1.63;1.53;;;;;;;;;;4955455;28;20502;-67
2023/10/07 15:34:54;;;;;;;5.33;2.03;;;;;;;;;;4953847;28;20494;-67
2023/10/07 15:37:20;;;;;;;1.97;1.70;;;;;;;;;;4954342;28;20415;-68
2023/10/07 15:39:46;;;;;;;1.20;1.20;;;;;;;;;;4954397;28;20449;-68